sensor_id;sensor_type;location;lat;lon;timestamp;temperature;humidity
19132;DHT22;9698;51.976;7.570;2023-07-13T00:02:26;20.70;1.00
19132;DHT22;9698;51.976;7.570;2023-07-13T00:04:55;20.50;1.00
19132;DHT22;9698;51.976;7.570;2023-07-13T00:07:22;20.50;1.00
19132;DHT22;9698;51.976;7.570;2023-07-13T00:09:51;20.60;1.00
19132;DHT22;9698;51.976;7.570;2023-07-13T00:12:25;20.60;1.00
19132;DHT22;9698;51.976;7.570;2023-07-13T00:14:53;20.50;1.00
19132;DHT22;9698;51.976;7.570;2023-07-13T00:17:21;20.50;1.00
19132;DHT22;9698;51.976;7.570;2023-07-13T00:19:49;20.60;1.00
19132;DHT22;9698;51.976;7.570;2023-07-13T00:22:17;20.60;1.00
19132;DHT22;9698;51.976;7.570;2023-07-13T00:24:45;20.60;1.00
19132;DHT22;9698;51.976;7.570;2023-07-13T00:27:14;20.50;1.00
19132;DHT22;9698;51.976;7.570;2023-07-13T00:29:41;20.50;1.00
19132;DHT22;9698;51.976;7.570;2023-07-13T00:32:10;20.50;1.00
19132;DHT22;9698;51.976;7.570;2023-07-13T00:34:38;20.50;1.00
19132;DHT22;9698;51.976;7.570;2023-07-13T00:37:07;20.50;1.70
19132;DHT22;9698;51.976;7.570;2023-07-13T00:39:35;20.40;17.20
19132;DHT22;9698;51.976;7.570;2023-07-13T00:42:04;20.40;7.90
19132;DHT22;9698;51.976;7.570;2023-07-13T00:44:32;20.40;1.00
19132;DHT22;9698;51.976;7.570;2023-07-13T00:47:00;20.40;1.00
19132;DHT22;9698;51.976;7.570;2023-07-13T00:49:31;20.20;7.40
19132;DHT22;9698;51.976;7.570;2023-07-13T00:52:02;20.30;1.00
19132;DHT22;9698;51.976;7.570;2023-07-13T00:54:33;20.20;1.00
19132;DHT22;9698;51.976;7.570;2023-07-13T00:57:04;20.20;1.00
19132;DHT22;9698;51.976;7.570;2023-07-13T00:59:34;20.20;1.00
19132;DHT22;9698;51.976;7.570;2023-07-13T01:02:03;20.20;1.00
19132;DHT22;9698;51.976;7.570;2023-07-13T01:04:31;20.10;1.00
19132;DHT22;9698;51.976;7.570;2023-07-13T01:06:59;20.00;1.50
19132;DHT22;9698;51.976;7.570;2023-07-13T01:09:28;20.10;1.00
19132;DHT22;9698;51.976;7.570;2023-07-13T01:11:56;20.00;8.20
19132;DHT22;9698;51.976;7.570;2023-07-13T01:14:24;19.90;22.30
19132;DHT22;9698;51.976;7.570;2023-07-13T01:16:52;19.90;10.20
19132;DHT22;9698;51.976;7.570;2023-07-13T01:19:32;19.80;23.10
19132;DHT22;9698;51.976;7.570;2023-07-13T01:22:04;19.90;17.80
19132;DHT22;9698;51.976;7.570;2023-07-13T01:24:36;19.80;33.40
19132;DHT22;9698;51.976;7.570;2023-07-13T01:27:06;19.80;36.40
19132;DHT22;9698;51.976;7.570;2023-07-13T01:29:36;19.80;27.30
19132;DHT22;9698;51.976;7.570;2023-07-13T01:32:10;19.70;25.00
19132;DHT22;9698;51.976;7.570;2023-07-13T01:34:39;19.70;37.80
19132;DHT22;9698;51.976;7.570;2023-07-13T01:37:10;19.70;40.00
19132;DHT22;9698;51.976;7.570;2023-07-13T01:39:38;19.70;46.30
19132;DHT22;9698;51.976;7.570;2023-07-13T01:42:06;19.00;43.30
19132;DHT22;9698;51.976;7.570;2023-07-13T01:44:34;19.70;29.90
19132;DHT22;9698;51.976;7.570;2023-07-13T01:47:03;19.70;28.50
19132;DHT22;9698;51.976;7.570;2023-07-13T01:49:31;19.60;26.50
19132;DHT22;9698;51.976;7.570;2023-07-13T01:51:59;19.60;33.20
19132;DHT22;9698;51.976;7.570;2023-07-13T01:54:27;19.60;44.30
19132;DHT22;9698;51.976;7.570;2023-07-13T01:56:55;19.60;39.70
19132;DHT22;9698;51.976;7.570;2023-07-13T01:59:23;19.50;43.90
19132;DHT22;9698;51.976;7.570;2023-07-13T02:01:51;19.60;27.70
19132;DHT22;9698;51.976;7.570;2023-07-13T02:04:19;19.60;35.70
19132;DHT22;9698;51.976;7.570;2023-07-13T02:06:46;19.50;35.20
19132;DHT22;9698;51.976;7.570;2023-07-13T02:09:14;19.50;45.30
19132;DHT22;9698;51.976;7.570;2023-07-13T02:11:42;19.40;40.50
19132;DHT22;9698;51.976;7.570;2023-07-13T02:16:59;19.40;44.70
19132;DHT22;9698;51.976;7.570;2023-07-13T02:19:28;19.40;36.90
19132;DHT22;9698;51.976;7.570;2023-07-13T02:21:56;19.40;42.60
19132;DHT22;9698;51.976;7.570;2023-07-13T02:24:24;19.40;38.20
19132;DHT22;9698;51.976;7.570;2023-07-13T02:26:51;19.40;40.60
19132;DHT22;9698;51.976;7.570;2023-07-13T02:29:20;19.40;44.90
19132;DHT22;9698;51.976;7.570;2023-07-13T02:31:47;19.30;51.60
19132;DHT22;9698;51.976;7.570;2023-07-13T02:34:15;19.30;55.80
19132;DHT22;9698;51.976;7.570;2023-07-13T02:36:43;19.30;57.50
19132;DHT22;9698;51.976;7.570;2023-07-13T02:39:12;19.20;62.80
19132;DHT22;9698;51.976;7.570;2023-07-13T02:41:40;19.30;61.00
19132;DHT22;9698;51.976;7.570;2023-07-13T02:44:08;19.20;62.80
19132;DHT22;9698;51.976;7.570;2023-07-13T02:49:25;18.80;69.80
19132;DHT22;9698;51.976;7.570;2023-07-13T02:51:53;19.20;77.30
19132;DHT22;9698;51.976;7.570;2023-07-13T02:54:21;19.20;74.20
19132;DHT22;9698;51.976;7.570;2023-07-13T02:56:49;19.10;70.50
19132;DHT22;9698;51.976;7.570;2023-07-13T02:59:17;19.10;69.90
19132;DHT22;9698;51.976;7.570;2023-07-13T03:01:45;19.10;76.40
19132;DHT22;9698;51.976;7.570;2023-07-13T03:04:12;19.00;71.60
19132;DHT22;9698;51.976;7.570;2023-07-13T03:06:41;19.10;64.10
19132;DHT22;9698;51.976;7.570;2023-07-13T03:09:08;19.00;66.20
19132;DHT22;9698;51.976;7.570;2023-07-13T03:11:36;19.00;61.50
19132;DHT22;9698;51.976;7.570;2023-07-13T03:14:05;19.00;59.00
19132;DHT22;9698;51.976;7.570;2023-07-13T03:16:33;19.00;57.60
19132;DHT22;9698;51.976;7.570;2023-07-13T03:19:01;18.80;61.60
19132;DHT22;9698;51.976;7.570;2023-07-13T03:21:28;18.90;56.90
19132;DHT22;9698;51.976;7.570;2023-07-13T03:23:56;18.90;49.80
19132;DHT22;9698;51.976;7.570;2023-07-13T03:26:24;18.70;48.00
19132;DHT22;9698;51.976;7.570;2023-07-13T03:28:52;18.90;38.70
19132;DHT22;9698;51.976;7.570;2023-07-13T03:31:25;18.80;37.30
19132;DHT22;9698;51.976;7.570;2023-07-13T03:33:53;18.80;29.60
19132;DHT22;9698;51.976;7.570;2023-07-13T03:36:22;18.80;23.30
19132;DHT22;9698;51.976;7.570;2023-07-13T03:38:52;18.80;22.80
19132;DHT22;9698;51.976;7.570;2023-07-13T03:41:21;18.80;27.00
19132;DHT22;9698;51.976;7.570;2023-07-13T03:43:49;19.20;29.00
19132;DHT22;9698;51.976;7.570;2023-07-13T03:46:18;18.80;22.30
19132;DHT22;9698;51.976;7.570;2023-07-13T03:48:47;18.70;21.30
19132;DHT22;9698;51.976;7.570;2023-07-13T03:51:17;18.70;22.70
19132;DHT22;9698;51.976;7.570;2023-07-13T03:53:47;18.80;25.10
19132;DHT22;9698;51.976;7.570;2023-07-13T03:56:16;18.60;18.60
19132;DHT22;9698;51.976;7.570;2023-07-13T03:58:46;18.60;27.20
19132;DHT22;9698;51.976;7.570;2023-07-13T04:01:16;18.60;30.00
19132;DHT22;9698;51.976;7.570;2023-07-13T04:03:45;18.50;34.60
19132;DHT22;9698;51.976;7.570;2023-07-13T04:06:16;18.50;25.70
19132;DHT22;9698;51.976;7.570;2023-07-13T04:08:49;18.60;29.10
19132;DHT22;9698;51.976;7.570;2023-07-13T04:11:18;18.50;28.20
19132;DHT22;9698;51.976;7.570;2023-07-13T04:13:46;18.60;33.70
19132;DHT22;9698;51.976;7.570;2023-07-13T04:16:15;18.60;21.20
19132;DHT22;9698;51.976;7.570;2023-07-13T04:18:44;18.60;26.30
19132;DHT22;9698;51.976;7.570;2023-07-13T04:21:12;18.60;33.00
19132;DHT22;9698;51.976;7.570;2023-07-13T04:23:40;18.60;37.60
19132;DHT22;9698;51.976;7.570;2023-07-13T04:26:09;18.60;28.80
19132;DHT22;9698;51.976;7.570;2023-07-13T04:28:37;18.60;29.70
19132;DHT22;9698;51.976;7.570;2023-07-13T04:31:05;18.60;19.00
19132;DHT22;9698;51.976;7.570;2023-07-13T04:33:33;18.60;30.40
19132;DHT22;9698;51.976;7.570;2023-07-13T04:36:01;18.50;28.10
19132;DHT22;9698;51.976;7.570;2023-07-13T04:38:31;18.60;36.80
19132;DHT22;9698;51.976;7.570;2023-07-13T04:41:02;18.60;42.30
19132;DHT22;9698;51.976;7.570;2023-07-13T04:43:30;18.40;50.20
19132;DHT22;9698;51.976;7.570;2023-07-13T04:46:03;18.40;60.40
19132;DHT22;9698;51.976;7.570;2023-07-13T04:48:31;18.40;55.20
19132;DHT22;9698;51.976;7.570;2023-07-13T04:50:59;18.50;61.50
19132;DHT22;9698;51.976;7.570;2023-07-13T04:53:27;18.50;66.00
19132;DHT22;9698;51.976;7.570;2023-07-13T04:55:56;18.60;66.60
19132;DHT22;9698;51.976;7.570;2023-07-13T04:58:24;18.60;63.60
19132;DHT22;9698;51.976;7.570;2023-07-13T05:00:52;18.60;66.60
19132;DHT22;9698;51.976;7.570;2023-07-13T05:03:20;18.70;63.80
19132;DHT22;9698;51.976;7.570;2023-07-13T05:05:56;18.70;71.40
19132;DHT22;9698;51.976;7.570;2023-07-13T05:08:24;18.70;71.00
19132;DHT22;9698;51.976;7.570;2023-07-13T05:10:53;18.70;88.90
19132;DHT22;9698;51.976;7.570;2023-07-13T05:13:21;18.70;95.40
19132;DHT22;9698;51.976;7.570;2023-07-13T05:15:56;18.90;91.50
19132;DHT22;9698;51.976;7.570;2023-07-13T05:18:24;18.80;92.60
19132;DHT22;9698;51.976;7.570;2023-07-13T05:21:00;18.90;92.10
19132;DHT22;9698;51.976;7.570;2023-07-13T05:23:28;18.90;99.30
19132;DHT22;9698;51.976;7.570;2023-07-13T05:25:56;18.90;99.90
19132;DHT22;9698;51.976;7.570;2023-07-13T05:28:25;18.90;99.90
19132;DHT22;9698;51.976;7.570;2023-07-13T05:30:53;19.00;99.70
19132;DHT22;9698;51.976;7.570;2023-07-13T05:33:22;18.90;97.70
19132;DHT22;9698;51.976;7.570;2023-07-13T05:35:50;18.70;99.90
19132;DHT22;9698;51.976;7.570;2023-07-13T05:38:18;18.90;99.90
19132;DHT22;9698;51.976;7.570;2023-07-13T05:40:47;18.90;99.90
19132;DHT22;9698;51.976;7.570;2023-07-13T05:43:15;18.90;99.90
19132;DHT22;9698;51.976;7.570;2023-07-13T05:45:43;18.90;99.90
19132;DHT22;9698;51.976;7.570;2023-07-13T05:48:11;18.90;99.90
19132;DHT22;9698;51.976;7.570;2023-07-13T05:50:38;19.00;99.90
19132;DHT22;9698;51.976;7.570;2023-07-13T05:53:06;18.90;99.90
19132;DHT22;9698;51.976;7.570;2023-07-13T05:55:34;18.90;99.90
19132;DHT22;9698;51.976;7.570;2023-07-13T05:58:02;18.70;99.90
19132;DHT22;9698;51.976;7.570;2023-07-13T06:00:30;18.80;99.90
19132;DHT22;9698;51.976;7.570;2023-07-13T06:02:58;18.70;99.90
19132;DHT22;9698;51.976;7.570;2023-07-13T06:05:26;18.80;99.90
19132;DHT22;9698;51.976;7.570;2023-07-13T06:07:56;18.80;99.90
19132;DHT22;9698;51.976;7.570;2023-07-13T06:10:24;18.80;99.90
19132;DHT22;9698;51.976;7.570;2023-07-13T06:12:51;18.80;99.90
19132;DHT22;9698;51.976;7.570;2023-07-13T06:15:19;18.80;99.90
19132;DHT22;9698;51.976;7.570;2023-07-13T06:17:47;18.80;99.90
19132;DHT22;9698;51.976;7.570;2023-07-13T06:20:15;18.80;99.90
19132;DHT22;9698;51.976;7.570;2023-07-13T06:22:43;18.90;99.90
19132;DHT22;9698;51.976;7.570;2023-07-13T06:25:11;19.10;99.90
19132;DHT22;9698;51.976;7.570;2023-07-13T06:27:39;18.90;99.90
19132;DHT22;9698;51.976;7.570;2023-07-13T06:30:08;18.90;99.90
19132;DHT22;9698;51.976;7.570;2023-07-13T06:32:37;18.80;99.90
19132;DHT22;9698;51.976;7.570;2023-07-13T06:35:08;18.90;99.90
19132;DHT22;9698;51.976;7.570;2023-07-13T06:37:39;18.90;99.90
19132;DHT22;9698;51.976;7.570;2023-07-13T06:40:10;19.00;99.90
19132;DHT22;9698;51.976;7.570;2023-07-13T06:42:37;19.00;99.90
19132;DHT22;9698;51.976;7.570;2023-07-13T06:45:07;19.20;99.90
19132;DHT22;9698;51.976;7.570;2023-07-13T06:47:35;19.30;99.90
19132;DHT22;9698;51.976;7.570;2023-07-13T06:50:05;19.20;99.90
19132;DHT22;9698;51.976;7.570;2023-07-13T06:52:33;19.20;99.90
19132;DHT22;9698;51.976;7.570;2023-07-13T06:55:02;19.20;99.90
19132;DHT22;9698;51.976;7.570;2023-07-13T06:57:30;19.20;99.90
19132;DHT22;9698;51.976;7.570;2023-07-13T06:59:58;19.30;99.90
19132;DHT22;9698;51.976;7.570;2023-07-13T07:02:26;19.30;99.90
19132;DHT22;9698;51.976;7.570;2023-07-13T07:04:54;19.20;99.90
19132;DHT22;9698;51.976;7.570;2023-07-13T07:07:24;19.10;99.90
19132;DHT22;9698;51.976;7.570;2023-07-13T07:09:52;19.20;99.90
19132;DHT22;9698;51.976;7.570;2023-07-13T07:12:20;19.20;99.90
19132;DHT22;9698;51.976;7.570;2023-07-13T07:14:48;19.30;99.90
19132;DHT22;9698;51.976;7.570;2023-07-13T07:17:16;19.30;99.90
19132;DHT22;9698;51.976;7.570;2023-07-13T07:19:44;19.30;99.90
19132;DHT22;9698;51.976;7.570;2023-07-13T07:22:12;19.40;99.90
19132;DHT22;9698;51.976;7.570;2023-07-13T07:24:40;19.40;99.90
19132;DHT22;9698;51.976;7.570;2023-07-13T07:27:08;19.60;99.90
19132;DHT22;9698;51.976;7.570;2023-07-13T07:29:39;19.30;99.90
19132;DHT22;9698;51.976;7.570;2023-07-13T07:32:13;19.50;99.90
19132;DHT22;9698;51.976;7.570;2023-07-13T07:35:22;19.50;99.90
19132;DHT22;9698;51.976;7.570;2023-07-13T07:37:50;19.50;99.90
19132;DHT22;9698;51.976;7.570;2023-07-13T07:40:18;19.60;99.90
19132;DHT22;9698;51.976;7.570;2023-07-13T07:42:49;19.70;99.90
19132;DHT22;9698;51.976;7.570;2023-07-13T07:45:17;19.70;99.90
19132;DHT22;9698;51.976;7.570;2023-07-13T07:47:45;19.70;99.90
19132;DHT22;9698;51.976;7.570;2023-07-13T07:50:14;19.70;99.90
19132;DHT22;9698;51.976;7.570;2023-07-13T07:52:42;19.90;99.90
19132;DHT22;9698;51.976;7.570;2023-07-13T07:55:11;19.80;99.90
19132;DHT22;9698;51.976;7.570;2023-07-13T07:57:42;19.80;99.90
19132;DHT22;9698;51.976;7.570;2023-07-13T08:00:15;19.90;99.90
19132;DHT22;9698;51.976;7.570;2023-07-13T08:02:47;19.90;99.90
19132;DHT22;9698;51.976;7.570;2023-07-13T08:05:18;19.90;99.90
19132;DHT22;9698;51.976;7.570;2023-07-13T08:07:49;19.90;99.90
19132;DHT22;9698;51.976;7.570;2023-07-13T08:10:17;19.90;99.90
19132;DHT22;9698;51.976;7.570;2023-07-13T08:12:46;19.90;99.90
19132;DHT22;9698;51.976;7.570;2023-07-13T08:15:39;19.90;99.90
19132;DHT22;9698;51.976;7.570;2023-07-13T08:18:07;19.90;99.90
19132;DHT22;9698;51.976;7.570;2023-07-13T08:20:38;19.90;99.90
19132;DHT22;9698;51.976;7.570;2023-07-13T08:23:07;19.80;99.90
19132;DHT22;9698;51.976;7.570;2023-07-13T08:25:37;19.70;99.90
19132;DHT22;9698;51.976;7.570;2023-07-13T08:28:05;19.80;99.90
19132;DHT22;9698;51.976;7.570;2023-07-13T08:30:33;19.70;99.90
19132;DHT22;9698;51.976;7.570;2023-07-13T08:33:01;19.80;99.90
19132;DHT22;9698;51.976;7.570;2023-07-13T08:35:29;20.00;99.90
19132;DHT22;9698;51.976;7.570;2023-07-13T08:37:58;20.10;99.90
19132;DHT22;9698;51.976;7.570;2023-07-13T08:40:28;20.10;99.90
19132;DHT22;9698;51.976;7.570;2023-07-13T08:42:58;20.20;99.90
19132;DHT22;9698;51.976;7.570;2023-07-13T08:45:33;20.20;99.90
19132;DHT22;9698;51.976;7.570;2023-07-13T08:48:08;20.20;99.90
19132;DHT22;9698;51.976;7.570;2023-07-13T08:50:42;20.20;72.90
19132;DHT22;9698;51.976;7.570;2023-07-13T08:53:33;19.90;94.10
19132;DHT22;9698;51.976;7.570;2023-07-13T08:56:03;20.00;88.30
19132;DHT22;9698;51.976;7.570;2023-07-13T08:58:31;20.10;92.50
19132;DHT22;9698;51.976;7.570;2023-07-13T09:01:05;20.20;96.00
19132;DHT22;9698;51.976;7.570;2023-07-13T09:03:42;20.40;74.60
19132;DHT22;9698;51.976;7.570;2023-07-13T09:06:15;20.30;64.60
19132;DHT22;9698;51.976;7.570;2023-07-13T09:08:51;20.30;67.20
19132;DHT22;9698;51.976;7.570;2023-07-13T09:11:36;20.40;46.90
19132;DHT22;9698;51.976;7.570;2023-07-13T09:14:29;20.50;22.10
19132;DHT22;9698;51.976;7.570;2023-07-13T09:17:04;20.50;32.50
19132;DHT22;9698;51.976;7.570;2023-07-13T09:19:33;20.10;28.20
19132;DHT22;9698;51.976;7.570;2023-07-13T09:22:05;20.50;29.50
19132;DHT22;9698;51.976;7.570;2023-07-13T09:24:41;20.50;53.00
19132;DHT22;9698;51.976;7.570;2023-07-13T09:27:17;20.50;51.60
19132;DHT22;9698;51.976;7.570;2023-07-13T09:29:50;20.60;73.50
19132;DHT22;9698;51.976;7.570;2023-07-13T09:32:23;20.60;82.20
19132;DHT22;9698;51.976;7.570;2023-07-13T09:34:52;20.80;10.40
19132;DHT22;9698;51.976;7.570;2023-07-13T09:37:24;20.50;23.80
19132;DHT22;9698;51.976;7.570;2023-07-13T09:39:55;20.40;10.10
19132;DHT22;9698;51.976;7.570;2023-07-13T09:42:23;20.50;2.40
19132;DHT22;9698;51.976;7.570;2023-07-13T09:44:54;20.50;4.80
19132;DHT22;9698;51.976;7.570;2023-07-13T09:47:24;20.40;27.70
19132;DHT22;9698;51.976;7.570;2023-07-13T09:49:58;20.40;16.80
19132;DHT22;9698;51.976;7.570;2023-07-13T09:52:41;20.40;1.00
19132;DHT22;9698;51.976;7.570;2023-07-13T09:55:25;20.70;23.80
19132;DHT22;9698;51.976;7.570;2023-07-13T09:57:53;21.00;34.40
19132;DHT22;9698;51.976;7.570;2023-07-13T10:00:25;20.80;1.00
19132;DHT22;9698;51.976;7.570;2023-07-13T10:03:02;21.00;1.00
19132;DHT22;9698;51.976;7.570;2023-07-13T10:05:39;20.80;23.50
19132;DHT22;9698;51.976;7.570;2023-07-13T10:08:17;20.90;19.90
19132;DHT22;9698;51.976;7.570;2023-07-13T10:10:45;20.90;5.40
19132;DHT22;9698;51.976;7.570;2023-07-13T10:13:28;20.90;33.90
19132;DHT22;9698;51.976;7.570;2023-07-13T10:15:58;21.10;43.00
19132;DHT22;9698;51.976;7.570;2023-07-13T10:18:27;21.10;29.90
19132;DHT22;9698;51.976;7.570;2023-07-13T10:23:52;21.00;1.00
19132;DHT22;9698;51.976;7.570;2023-07-13T10:26:25;21.00;1.00
19132;DHT22;9698;51.976;7.570;2023-07-13T10:28:55;21.00;1.00
19132;DHT22;9698;51.976;7.570;2023-07-13T10:31:24;20.90;1.00
19132;DHT22;9698;51.976;7.570;2023-07-13T10:33:53;21.00;1.00
19132;DHT22;9698;51.976;7.570;2023-07-13T10:36:30;21.00;1.00
19132;DHT22;9698;51.976;7.570;2023-07-13T10:39:01;21.10;1.00
19132;DHT22;9698;51.976;7.570;2023-07-13T10:41:33;21.20;1.00
19132;DHT22;9698;51.976;7.570;2023-07-13T10:44:02;21.20;1.00
19132;DHT22;9698;51.976;7.570;2023-07-13T10:46:31;21.20;1.00
19132;DHT22;9698;51.976;7.570;2023-07-13T10:49:02;21.20;1.00
19132;DHT22;9698;51.976;7.570;2023-07-13T10:51:32;21.30;1.00
19132;DHT22;9698;51.976;7.570;2023-07-13T10:54:18;21.40;1.00
19132;DHT22;9698;51.976;7.570;2023-07-13T10:56:52;21.40;1.00
19132;DHT22;9698;51.976;7.570;2023-07-13T10:59:25;21.40;1.00
19132;DHT22;9698;51.976;7.570;2023-07-13T11:01:57;21.50;1.00
19132;DHT22;9698;51.976;7.570;2023-07-13T11:04:27;21.50;1.00
19132;DHT22;9698;51.976;7.570;2023-07-13T11:06:59;21.50;1.00
19132;DHT22;9698;51.976;7.570;2023-07-13T11:09:39;21.60;1.00
19132;DHT22;9698;51.976;7.570;2023-07-13T11:12:10;21.60;1.00
19132;DHT22;9698;51.976;7.570;2023-07-13T11:15:09;21.70;1.00
19132;DHT22;9698;51.976;7.570;2023-07-13T11:20:38;21.70;1.00
19132;DHT22;9698;51.976;7.570;2023-07-13T11:26:41;21.70;1.00
19132;DHT22;9698;51.976;7.570;2023-07-13T11:29:14;21.70;1.00
19132;DHT22;9698;51.976;7.570;2023-07-13T11:31:54;21.80;1.00
19132;DHT22;9698;51.976;7.570;2023-07-13T11:34:28;21.90;1.00
19132;DHT22;9698;51.976;7.570;2023-07-13T11:36:59;22.00;1.00
19132;DHT22;9698;51.976;7.570;2023-07-13T11:39:31;22.10;1.00
19132;DHT22;9698;51.976;7.570;2023-07-13T11:42:01;21.90;1.00
19132;DHT22;9698;51.976;7.570;2023-07-13T11:44:33;22.00;1.00
19132;DHT22;9698;51.976;7.570;2023-07-13T11:47:10;22.00;1.00
19132;DHT22;9698;51.976;7.570;2023-07-13T11:49:43;22.00;1.00
19132;DHT22;9698;51.976;7.570;2023-07-13T11:52:15;22.10;1.00
19132;DHT22;9698;51.976;7.570;2023-07-13T11:57:41;22.10;1.00
19132;DHT22;9698;51.976;7.570;2023-07-13T12:00:15;22.00;1.00
19132;DHT22;9698;51.976;7.570;2023-07-13T12:02:45;22.00;1.00
19132;DHT22;9698;51.976;7.570;2023-07-13T12:05:15;22.00;1.00
19132;DHT22;9698;51.976;7.570;2023-07-13T12:07:45;22.10;1.00
19132;DHT22;9698;51.976;7.570;2023-07-13T12:10:20;22.20;1.00
19132;DHT22;9698;51.976;7.570;2023-07-13T12:12:52;22.20;1.00
19132;DHT22;9698;51.976;7.570;2023-07-13T12:15:21;22.20;1.00
19132;DHT22;9698;51.976;7.570;2023-07-13T12:17:50;22.00;1.00
19132;DHT22;9698;51.976;7.570;2023-07-13T12:20:26;21.90;1.00
19132;DHT22;9698;51.976;7.570;2023-07-13T12:22:54;21.90;1.00
19132;DHT22;9698;51.976;7.570;2023-07-13T12:25:29;21.70;1.00
19132;DHT22;9698;51.976;7.570;2023-07-13T12:27:58;21.60;1.00
19132;DHT22;9698;51.976;7.570;2023-07-13T12:30:29;21.30;1.00
19132;DHT22;9698;51.976;7.570;2023-07-13T12:33:01;21.10;1.00
19132;DHT22;9698;51.976;7.570;2023-07-13T12:35:30;20.90;1.00
19132;DHT22;9698;51.976;7.570;2023-07-13T12:38:00;20.90;1.00
19132;DHT22;9698;51.976;7.570;2023-07-13T12:40:33;20.80;1.00
19132;DHT22;9698;51.976;7.570;2023-07-13T12:43:04;21.00;1.00
19132;DHT22;9698;51.976;7.570;2023-07-13T12:45:34;21.20;1.00
19132;DHT22;9698;51.976;7.570;2023-07-13T12:48:11;21.40;3.70
19132;DHT22;9698;51.976;7.570;2023-07-13T12:50:45;21.40;1.00
19132;DHT22;9698;51.976;7.570;2023-07-13T12:53:17;21.40;1.00
19132;DHT22;9698;51.976;7.570;2023-07-13T12:55:47;21.20;51.00
19132;DHT22;9698;51.976;7.570;2023-07-13T12:58:20;20.90;99.90
19132;DHT22;9698;51.976;7.570;2023-07-13T13:00:53;20.60;99.90
19132;DHT22;9698;51.976;7.570;2023-07-13T13:03:29;20.60;99.90
19132;DHT22;9698;51.976;7.570;2023-07-13T13:06:00;20.50;99.90
19132;DHT22;9698;51.976;7.570;2023-07-13T13:08:32;20.60;99.90
19132;DHT22;9698;51.976;7.570;2023-07-13T13:11:01;20.60;99.90
19132;DHT22;9698;51.976;7.570;2023-07-13T13:13:29;20.70;99.90
19132;DHT22;9698;51.976;7.570;2023-07-13T13:16:02;20.70;99.90
19132;DHT22;9698;51.976;7.570;2023-07-13T13:18:33;20.60;99.90
19132;DHT22;9698;51.976;7.570;2023-07-13T13:21:01;20.60;99.90
19132;DHT22;9698;51.976;7.570;2023-07-13T13:23:30;20.70;99.90
19132;DHT22;9698;51.976;7.570;2023-07-13T13:25:59;20.70;99.90
19132;DHT22;9698;51.976;7.570;2023-07-13T13:28:27;20.40;99.90
19132;DHT22;9698;51.976;7.570;2023-07-13T13:30:56;20.60;99.90
19132;DHT22;9698;51.976;7.570;2023-07-13T13:33:26;20.50;99.90
19132;DHT22;9698;51.976;7.570;2023-07-13T13:35:54;20.60;99.90
19132;DHT22;9698;51.976;7.570;2023-07-13T13:38:27;20.60;99.90
19132;DHT22;9698;51.976;7.570;2023-07-13T13:40:55;20.50;99.90
19132;DHT22;9698;51.976;7.570;2023-07-13T13:43:25;20.40;99.90
19132;DHT22;9698;51.976;7.570;2023-07-13T13:45:56;20.50;99.90
19132;DHT22;9698;51.976;7.570;2023-07-13T13:48:29;20.50;99.90
19132;DHT22;9698;51.976;7.570;2023-07-13T13:50:59;20.40;99.90
19132;DHT22;9698;51.976;7.570;2023-07-13T13:53:28;20.40;99.90
19132;DHT22;9698;51.976;7.570;2023-07-13T13:55:56;20.30;99.90
19132;DHT22;9698;51.976;7.570;2023-07-13T13:58:24;20.20;99.90
19132;DHT22;9698;51.976;7.570;2023-07-13T14:00:51;20.30;99.90
19132;DHT22;9698;51.976;7.570;2023-07-13T14:03:20;20.20;99.90
19132;DHT22;9698;51.976;7.570;2023-07-13T14:05:49;20.00;99.90
19132;DHT22;9698;51.976;7.570;2023-07-13T14:08:19;20.10;99.90
19132;DHT22;9698;51.976;7.570;2023-07-13T14:10:49;20.10;99.90
19132;DHT22;9698;51.976;7.570;2023-07-13T14:13:19;20.10;99.90
19132;DHT22;9698;51.976;7.570;2023-07-13T14:15:47;20.10;99.90
19132;DHT22;9698;51.976;7.570;2023-07-13T14:18:16;20.10;99.90
19132;DHT22;9698;51.976;7.570;2023-07-13T14:20:45;19.90;99.90
19132;DHT22;9698;51.976;7.570;2023-07-13T14:23:14;19.90;99.90
19132;DHT22;9698;51.976;7.570;2023-07-13T14:25:43;19.80;99.90
19132;DHT22;9698;51.976;7.570;2023-07-13T14:28:20;19.90;99.90
19132;DHT22;9698;51.976;7.570;2023-07-13T14:30:49;19.90;99.90
19132;DHT22;9698;51.976;7.570;2023-07-13T14:33:17;20.00;99.90
19132;DHT22;9698;51.976;7.570;2023-07-13T14:35:45;20.00;99.90
19132;DHT22;9698;51.976;7.570;2023-07-13T14:38:16;20.00;99.90
19132;DHT22;9698;51.976;7.570;2023-07-13T14:40:45;20.10;99.90
19132;DHT22;9698;51.976;7.570;2023-07-13T14:43:15;20.40;99.90
19132;DHT22;9698;51.976;7.570;2023-07-13T14:45:46;20.50;99.90
19132;DHT22;9698;51.976;7.570;2023-07-13T14:48:16;20.60;99.90
19132;DHT22;9698;51.976;7.570;2023-07-13T14:50:46;20.60;99.90
19132;DHT22;9698;51.976;7.570;2023-07-13T14:53:15;20.70;99.90
19132;DHT22;9698;51.976;7.570;2023-07-13T14:55:43;20.90;99.90
19132;DHT22;9698;51.976;7.570;2023-07-13T14:58:10;21.10;99.90
19132;DHT22;9698;51.976;7.570;2023-07-13T15:00:38;21.20;99.90
19132;DHT22;9698;51.976;7.570;2023-07-13T15:03:17;21.20;99.90
19132;DHT22;9698;51.976;7.570;2023-07-13T15:05:49;21.40;99.90
19132;DHT22;9698;51.976;7.570;2023-07-13T15:08:17;21.50;99.90
19132;DHT22;9698;51.976;7.570;2023-07-13T15:10:45;21.50;99.90
19132;DHT22;9698;51.976;7.570;2023-07-13T15:13:18;21.50;99.90
19132;DHT22;9698;51.976;7.570;2023-07-13T15:15:52;21.40;90.00
19132;DHT22;9698;51.976;7.570;2023-07-13T15:21:09;21.90;94.70
19132;DHT22;9698;51.976;7.570;2023-07-13T15:23:41;21.90;1.00
19132;DHT22;9698;51.976;7.570;2023-07-13T15:26:12;22.00;1.00
19132;DHT22;9698;51.976;7.570;2023-07-13T15:28:42;22.00;1.00
19132;DHT22;9698;51.976;7.570;2023-07-13T15:31:19;22.00;1.00
19132;DHT22;9698;51.976;7.570;2023-07-13T15:33:47;21.90;3.10
19132;DHT22;9698;51.976;7.570;2023-07-13T15:36:17;21.80;5.20
19132;DHT22;9698;51.976;7.570;2023-07-13T15:38:46;21.70;1.00
19132;DHT22;9698;51.976;7.570;2023-07-13T15:41:18;21.50;1.00
19132;DHT22;9698;51.976;7.570;2023-07-13T15:43:51;21.70;1.00
19132;DHT22;9698;51.976;7.570;2023-07-13T15:46:21;21.70;1.00
19132;DHT22;9698;51.976;7.570;2023-07-13T15:48:50;21.70;1.00
19132;DHT22;9698;51.976;7.570;2023-07-13T15:54:12;21.70;1.00
19132;DHT22;9698;51.976;7.570;2023-07-13T15:56:41;21.70;1.00
19132;DHT22;9698;51.976;7.570;2023-07-13T15:59:12;21.70;1.00
19132;DHT22;9698;51.976;7.570;2023-07-13T16:01:40;21.70;1.00
19132;DHT22;9698;51.976;7.570;2023-07-13T16:04:09;21.60;1.00
19132;DHT22;9698;51.976;7.570;2023-07-13T16:06:40;21.60;1.00
19132;DHT22;9698;51.976;7.570;2023-07-13T16:09:13;21.60;1.00
19132;DHT22;9698;51.976;7.570;2023-07-13T16:11:44;21.60;1.00
19132;DHT22;9698;51.976;7.570;2023-07-13T16:14:14;21.60;1.00
19132;DHT22;9698;51.976;7.570;2023-07-13T16:16:43;21.50;1.00
19132;DHT22;9698;51.976;7.570;2023-07-13T16:19:13;21.50;1.00
19132;DHT22;9698;51.976;7.570;2023-07-13T16:21:44;21.50;1.00
19132;DHT22;9698;51.976;7.570;2023-07-13T16:24:18;21.40;1.00
19132;DHT22;9698;51.976;7.570;2023-07-13T16:26:49;21.40;1.00
19132;DHT22;9698;51.976;7.570;2023-07-13T16:29:18;21.30;1.00
19132;DHT22;9698;51.976;7.570;2023-07-13T16:32:00;21.30;1.00
19132;DHT22;9698;51.976;7.570;2023-07-13T16:34:30;21.20;1.00